sensor_id;sensor_type;location;lat;lon;timestamp;P1;durP1;ratioP1;P2;durP2;ratioP2
39346;SDS011;26262;49.836;6.632;2023-05-20T00:00:30;2.08;;;1.17;;
39346;SDS011;26262;49.836;6.632;2023-05-20T00:02:55;3.55;;;1.27;;
39346;SDS011;26262;49.836;6.632;2023-05-20T00:05:21;3.03;;;1.55;;
39346;SDS011;26262;49.836;6.632;2023-05-20T00:07:47;4.13;;;1.60;;
39346;SDS011;26262;49.836;6.632;2023-05-20T00:10:13;2.25;;;1.50;;
39346;SDS011;26262;49.836;6.632;2023-05-20T00:12:38;2.67;;;1.40;;
39346;SDS011;26262;49.836;6.632;2023-05-20T00:15:04;6.68;;;1.73;;
39346;SDS011;26262;49.836;6.632;2023-05-20T00:17:31;3.65;;;1.50;;
39346;SDS011;26262;49.836;6.632;2023-05-20T00:19:56;2.85;;;1.38;;
39346;SDS011;26262;49.836;6.632;2023-05-20T00:22:23;2.70;;;1.60;;
39346;SDS011;26262;49.836;6.632;2023-05-20T00:24:49;3.75;;;1.38;;
39346;SDS011;26262;49.836;6.632;2023-05-20T00:27:15;3.85;;;1.60;;
39346;SDS011;26262;49.836;6.632;2023-05-20T00:29:40;4.05;;;2.00;;
39346;SDS011;26262;49.836;6.632;2023-05-20T00:32:06;2.80;;;1.70;;
39346;SDS011;26262;49.836;6.632;2023-05-20T00:34:32;2.65;;;1.70;;
39346;SDS011;26262;49.836;6.632;2023-05-20T00:36:57;2.67;;;1.35;;
39346;SDS011;26262;49.836;6.632;2023-05-20T00:39:23;2.72;;;1.65;;
39346;SDS011;26262;49.836;6.632;2023-05-20T00:41:49;3.15;;;1.58;;
39346;SDS011;26262;49.836;6.632;2023-05-20T00:44:14;5.80;;;1.50;;
39346;SDS011;26262;49.836;6.632;2023-05-20T00:46:40;6.25;;;1.90;;
39346;SDS011;26262;49.836;6.632;2023-05-20T00:49:05;2.30;;;1.52;;
39346;SDS011;26262;49.836;6.632;2023-05-20T00:51:31;2.38;;;1.30;;
39346;SDS011;26262;49.836;6.632;2023-05-20T00:53:57;1.83;;;1.30;;
39346;SDS011;26262;49.836;6.632;2023-05-20T00:56:23;2.88;;;1.20;;
39346;SDS011;26262;49.836;6.632;2023-05-20T00:58:49;2.60;;;1.40;;
39346;SDS011;26262;49.836;6.632;2023-05-20T01:01:15;3.90;;;1.50;;
39346;SDS011;26262;49.836;6.632;2023-05-20T01:03:40;3.00;;;1.30;;
39346;SDS011;26262;49.836;6.632;2023-05-20T01:06:06;2.78;;;1.50;;
39346;SDS011;26262;49.836;6.632;2023-05-20T01:08:31;3.30;;;1.60;;
39346;SDS011;26262;49.836;6.632;2023-05-20T01:11:08;4.32;;;1.98;;
39346;SDS011;26262;49.836;6.632;2023-05-20T01:13:39;2.20;;;1.60;;
39346;SDS011;26262;49.836;6.632;2023-05-20T01:16:09;4.55;;;1.70;;
39346;SDS011;26262;49.836;6.632;2023-05-20T01:18:35;4.32;;;1.92;;
39346;SDS011;26262;49.836;6.632;2023-05-20T01:21:03;2.78;;;1.40;;
39346;SDS011;26262;49.836;6.632;2023-05-20T01:23:38;4.63;;;1.50;;
39346;SDS011;26262;49.836;6.632;2023-05-20T01:26:04;2.42;;;1.42;;
39346;SDS011;26262;49.836;6.632;2023-05-20T01:28:31;3.83;;;1.55;;
39346;SDS011;26262;49.836;6.632;2023-05-20T01:31:01;3.63;;;1.42;;
39346;SDS011;26262;49.836;6.632;2023-05-20T01:33:29;3.65;;;1.30;;
39346;SDS011;26262;49.836;6.632;2023-05-20T01:35:57;4.20;;;1.88;;
39346;SDS011;26262;49.836;6.632;2023-05-20T01:38:23;2.50;;;1.48;;
39346;SDS011;26262;49.836;6.632;2023-05-20T01:40:50;4.75;;;1.63;;
39346;SDS011;26262;49.836;6.632;2023-05-20T01:43:17;3.28;;;1.52;;
39346;SDS011;26262;49.836;6.632;2023-05-20T01:45:43;3.10;;;1.70;;
39346;SDS011;26262;49.836;6.632;2023-05-20T01:48:11;1.75;;;1.20;;
39346;SDS011;26262;49.836;6.632;2023-05-20T01:50:37;3.17;;;1.50;;
39346;SDS011;26262;49.836;6.632;2023-05-20T01:53:03;1.80;;;1.30;;
39346;SDS011;26262;49.836;6.632;2023-05-20T01:55:32;3.35;;;1.60;;
39346;SDS011;26262;49.836;6.632;2023-05-20T01:57:57;2.92;;;1.33;;
39346;SDS011;26262;49.836;6.632;2023-05-20T02:00:23;3.15;;;2.22;;
39346;SDS011;26262;49.836;6.632;2023-05-20T02:02:49;2.78;;;1.60;;
39346;SDS011;26262;49.836;6.632;2023-05-20T02:05:15;2.78;;;1.45;;
39346;SDS011;26262;49.836;6.632;2023-05-20T02:07:40;2.45;;;1.55;;
39346;SDS011;26262;49.836;6.632;2023-05-20T02:10:06;3.22;;;1.60;;
39346;SDS011;26262;49.836;6.632;2023-05-20T02:12:32;3.88;;;1.30;;
39346;SDS011;26262;49.836;6.632;2023-05-20T02:14:57;3.90;;;1.20;;
39346;SDS011;26262;49.836;6.632;2023-05-20T02:17:23;3.78;;;1.63;;
39346;SDS011;26262;49.836;6.632;2023-05-20T02:19:48;4.80;;;1.85;;
39346;SDS011;26262;49.836;6.632;2023-05-20T02:22:14;5.32;;;2.05;;
39346;SDS011;26262;49.836;6.632;2023-05-20T02:24:39;2.97;;;1.63;;
39346;SDS011;26262;49.836;6.632;2023-05-20T02:27:07;6.35;;;1.50;;
39346;SDS011;26262;49.836;6.632;2023-05-20T02:29:32;3.33;;;1.40;;
39346;SDS011;26262;49.836;6.632;2023-05-20T02:31:58;3.22;;;1.42;;
39346;SDS011;26262;49.836;6.632;2023-05-20T02:34:23;3.63;;;1.70;;
39346;SDS011;26262;49.836;6.632;2023-05-20T02:36:50;4.43;;;2.10;;
39346;SDS011;26262;49.836;6.632;2023-05-20T02:39:16;3.67;;;1.50;;
39346;SDS011;26262;49.836;6.632;2023-05-20T02:41:42;2.63;;;1.65;;
39346;SDS011;26262;49.836;6.632;2023-05-20T02:44:07;2.28;;;1.30;;
39346;SDS011;26262;49.836;6.632;2023-05-20T02:46:33;3.03;;;1.70;;
39346;SDS011;26262;49.836;6.632;2023-05-20T02:48:58;4.07;;;1.60;;
39346;SDS011;26262;49.836;6.632;2023-05-20T02:51:24;2.95;;;1.60;;
39346;SDS011;26262;49.836;6.632;2023-05-20T02:53:50;3.47;;;1.77;;
39346;SDS011;26262;49.836;6.632;2023-05-20T02:56:15;3.10;;;1.45;;
39346;SDS011;26262;49.836;6.632;2023-05-20T02:58:45;2.45;;;1.58;;
39346;SDS011;26262;49.836;6.632;2023-05-20T03:01:11;2.95;;;1.40;;
39346;SDS011;26262;49.836;6.632;2023-05-20T03:03:37;3.92;;;2.10;;
39346;SDS011;26262;49.836;6.632;2023-05-20T03:06:02;2.50;;;1.60;;
39346;SDS011;26262;49.836;6.632;2023-05-20T03:08:28;4.07;;;2.22;;
39346;SDS011;26262;49.836;6.632;2023-05-20T03:10:53;2.45;;;1.60;;
39346;SDS011;26262;49.836;6.632;2023-05-20T03:13:19;2.75;;;1.77;;
39346;SDS011;26262;49.836;6.632;2023-05-20T03:15:45;2.70;;;1.60;;
39346;SDS011;26262;49.836;6.632;2023-05-20T03:18:11;3.80;;;1.60;;
39346;SDS011;26262;49.836;6.632;2023-05-20T03:20:37;3.60;;;1.65;;
39346;SDS011;26262;49.836;6.632;2023-05-20T03:23:04;4.25;;;1.92;;
39346;SDS011;26262;49.836;6.632;2023-05-20T03:25:29;3.92;;;1.98;;
39346;SDS011;26262;49.836;6.632;2023-05-20T03:27:55;4.38;;;1.77;;
39346;SDS011;26262;49.836;6.632;2023-05-20T03:32:48;2.10;;;1.52;;
39346;SDS011;26262;49.836;6.632;2023-05-20T03:35:14;3.40;;;1.67;;
39346;SDS011;26262;49.836;6.632;2023-05-20T03:37:40;4.22;;;2.10;;
39346;SDS011;26262;49.836;6.632;2023-05-20T03:40:06;3.03;;;1.65;;
39346;SDS011;26262;49.836;6.632;2023-05-20T03:42:34;2.85;;;1.90;;
39346;SDS011;26262;49.836;6.632;2023-05-20T03:45:03;4.32;;;1.60;;
39346;SDS011;26262;49.836;6.632;2023-05-20T03:47:29;3.25;;;1.60;;
39346;SDS011;26262;49.836;6.632;2023-05-20T03:49:55;3.50;;;1.95;;
39346;SDS011;26262;49.836;6.632;2023-05-20T03:52:20;4.82;;;1.52;;
39346;SDS011;26262;49.836;6.632;2023-05-20T03:54:46;3.63;;;1.90;;
39346;SDS011;26262;49.836;6.632;2023-05-20T03:57:11;3.25;;;1.70;;
39346;SDS011;26262;49.836;6.632;2023-05-20T03:59:37;2.63;;;1.90;;
39346;SDS011;26262;49.836;6.632;2023-05-20T04:02:03;3.80;;;2.03;;
39346;SDS011;26262;49.836;6.632;2023-05-20T04:04:29;3.72;;;1.70;;
39346;SDS011;26262;49.836;6.632;2023-05-20T04:06:55;3.47;;;1.52;;
39346;SDS011;26262;49.836;6.632;2023-05-20T04:09:21;4.03;;;1.98;;
39346;SDS011;26262;49.836;6.632;2023-05-20T04:11:47;2.70;;;1.60;;
39346;SDS011;26262;49.836;6.632;2023-05-20T04:14:12;2.90;;;1.88;;
39346;SDS011;26262;49.836;6.632;2023-05-20T04:16:39;2.50;;;1.80;;
39346;SDS011;26262;49.836;6.632;2023-05-20T04:19:04;2.22;;;1.63;;
39346;SDS011;26262;49.836;6.632;2023-05-20T04:21:31;2.90;;;1.50;;
39346;SDS011;26262;49.836;6.632;2023-05-20T04:23:56;3.10;;;1.80;;
39346;SDS011;26262;49.836;6.632;2023-05-20T04:26:22;3.13;;;1.60;;
39346;SDS011;26262;49.836;6.632;2023-05-20T04:28:48;2.70;;;1.80;;
39346;SDS011;26262;49.836;6.632;2023-05-20T04:31:13;3.10;;;1.85;;
39346;SDS011;26262;49.836;6.632;2023-05-20T04:33:39;3.58;;;1.77;;
39346;SDS011;26262;49.836;6.632;2023-05-20T04:36:05;2.72;;;1.60;;
39346;SDS011;26262;49.836;6.632;2023-05-20T04:38:33;4.25;;;2.10;;
39346;SDS011;26262;49.836;6.632;2023-05-20T04:41:00;2.67;;;1.80;;
39346;SDS011;26262;49.836;6.632;2023-05-20T04:43:26;5.93;;;2.13;;
39346;SDS011;26262;49.836;6.632;2023-05-20T04:48:21;3.33;;;1.85;;
39346;SDS011;26262;49.836;6.632;2023-05-20T04:50:47;2.95;;;2.00;;
39346;SDS011;26262;49.836;6.632;2023-05-20T04:53:14;4.05;;;2.13;;
39346;SDS011;26262;49.836;6.632;2023-05-20T04:55:40;4.38;;;1.80;;
39346;SDS011;26262;49.836;6.632;2023-05-20T04:58:07;3.42;;;1.50;;
39346;SDS011;26262;49.836;6.632;2023-05-20T05:00:38;5.53;;;2.30;;
39346;SDS011;26262;49.836;6.632;2023-05-20T05:03:14;4.00;;;2.05;;
39346;SDS011;26262;49.836;6.632;2023-05-20T05:05:40;2.60;;;1.90;;
39346;SDS011;26262;49.836;6.632;2023-05-20T05:08:06;3.90;;;1.60;;
39346;SDS011;26262;49.836;6.632;2023-05-20T05:10:32;4.28;;;2.08;;
39346;SDS011;26262;49.836;6.632;2023-05-20T05:12:58;4.40;;;1.70;;
39346;SDS011;26262;49.836;6.632;2023-05-20T05:15:24;2.72;;;1.75;;
39346;SDS011;26262;49.836;6.632;2023-05-20T05:17:50;5.10;;;1.83;;
39346;SDS011;26262;49.836;6.632;2023-05-20T05:20:15;2.60;;;1.73;;
39346;SDS011;26262;49.836;6.632;2023-05-20T05:22:41;3.70;;;1.67;;
39346;SDS011;26262;49.836;6.632;2023-05-20T05:25:07;2.15;;;1.70;;
39346;SDS011;26262;49.836;6.632;2023-05-20T05:27:34;4.18;;;1.80;;
39346;SDS011;26262;49.836;6.632;2023-05-20T05:30:00;5.03;;;1.90;;
39346;SDS011;26262;49.836;6.632;2023-05-20T05:32:26;5.22;;;2.15;;
39346;SDS011;26262;49.836;6.632;2023-05-20T05:34:52;4.50;;;1.85;;
39346;SDS011;26262;49.836;6.632;2023-05-20T05:37:17;3.05;;;1.70;;
39346;SDS011;26262;49.836;6.632;2023-05-20T05:39:43;2.75;;;1.90;;
39346;SDS011;26262;49.836;6.632;2023-05-20T05:42:08;3.70;;;2.10;;
39346;SDS011;26262;49.836;6.632;2023-05-20T05:44:34;2.55;;;1.80;;
39346;SDS011;26262;49.836;6.632;2023-05-20T05:46:59;6.35;;;2.78;;
39346;SDS011;26262;49.836;6.632;2023-05-20T05:49:25;3.47;;;2.00;;
39346;SDS011;26262;49.836;6.632;2023-05-20T05:51:51;3.13;;;1.90;;
39346;SDS011;26262;49.836;6.632;2023-05-20T05:54:16;4.28;;;1.90;;
39346;SDS011;26262;49.836;6.632;2023-05-20T05:56:42;3.08;;;1.85;;
39346;SDS011;26262;49.836;6.632;2023-05-20T05:59:07;5.47;;;1.98;;
39346;SDS011;26262;49.836;6.632;2023-05-20T06:01:33;3.85;;;1.90;;
39346;SDS011;26262;49.836;6.632;2023-05-20T06:03:58;3.60;;;1.65;;
39346;SDS011;26262;49.836;6.632;2023-05-20T06:06:25;2.80;;;2.00;;
39346;SDS011;26262;49.836;6.632;2023-05-20T06:08:51;4.97;;;1.95;;
39346;SDS011;26262;49.836;6.632;2023-05-20T06:11:16;4.20;;;2.20;;
39346;SDS011;26262;49.836;6.632;2023-05-20T06:13:42;2.75;;;1.67;;
39346;SDS011;26262;49.836;6.632;2023-05-20T06:16:07;2.95;;;1.65;;
39346;SDS011;26262;49.836;6.632;2023-05-20T06:18:33;3.22;;;2.22;;
39346;SDS011;26262;49.836;6.632;2023-05-20T06:20:58;3.67;;;1.90;;
39346;SDS011;26262;49.836;6.632;2023-05-20T06:23:24;3.05;;;1.77;;
39346;SDS011;26262;49.836;6.632;2023-05-20T06:25:50;2.75;;;1.60;;
39346;SDS011;26262;49.836;6.632;2023-05-20T06:28:16;2.58;;;1.77;;
39346;SDS011;26262;49.836;6.632;2023-05-20T06:30:42;3.92;;;2.40;;
39346;SDS011;26262;49.836;6.632;2023-05-20T06:33:07;2.92;;;2.08;;
39346;SDS011;26262;49.836;6.632;2023-05-20T06:35:33;4.93;;;1.90;;
39346;SDS011;26262;49.836;6.632;2023-05-20T06:37:59;2.72;;;1.92;;
39346;SDS011;26262;49.836;6.632;2023-05-20T06:40:25;5.10;;;1.83;;
39346;SDS011;26262;49.836;6.632;2023-05-20T06:42:51;3.95;;;1.98;;
39346;SDS011;26262;49.836;6.632;2023-05-20T06:45:17;3.38;;;2.05;;
39346;SDS011;26262;49.836;6.632;2023-05-20T06:47:43;3.17;;;2.08;;
39346;SDS011;26262;49.836;6.632;2023-05-20T06:50:09;2.85;;;1.90;;
39346;SDS011;26262;49.836;6.632;2023-05-20T06:52:35;2.88;;;1.98;;
39346;SDS011;26262;49.836;6.632;2023-05-20T06:55:01;3.47;;;2.08;;
39346;SDS011;26262;49.836;6.632;2023-05-20T06:57:28;2.70;;;1.80;;
39346;SDS011;26262;49.836;6.632;2023-05-20T06:59:53;2.80;;;2.03;;
39346;SDS011;26262;49.836;6.632;2023-05-20T07:02:20;3.80;;;2.13;;
39346;SDS011;26262;49.836;6.632;2023-05-20T07:04:46;4.00;;;2.23;;
39346;SDS011;26262;49.836;6.632;2023-05-20T07:07:11;4.07;;;2.28;;
39346;SDS011;26262;49.836;6.632;2023-05-20T07:09:37;4.20;;;2.13;;
39346;SDS011;26262;49.836;6.632;2023-05-20T07:12:02;3.78;;;2.20;;
39346;SDS011;26262;49.836;6.632;2023-05-20T07:14:28;3.33;;;2.20;;
39346;SDS011;26262;49.836;6.632;2023-05-20T07:16:54;4.20;;;2.00;;
39346;SDS011;26262;49.836;6.632;2023-05-20T07:19:19;3.03;;;2.00;;
39346;SDS011;26262;49.836;6.632;2023-05-20T07:21:45;3.75;;;2.70;;
39346;SDS011;26262;49.836;6.632;2023-05-20T07:24:10;4.95;;;2.50;;
39346;SDS011;26262;49.836;6.632;2023-05-20T07:26:36;3.30;;;2.30;;
39346;SDS011;26262;49.836;6.632;2023-05-20T07:29:02;3.83;;;2.40;;
39346;SDS011;26262;49.836;6.632;2023-05-20T07:31:28;3.13;;;2.15;;
39346;SDS011;26262;49.836;6.632;2023-05-20T07:33:55;4.38;;;2.75;;
39346;SDS011;26262;49.836;6.632;2023-05-20T07:36:20;4.32;;;3.03;;
39346;SDS011;26262;49.836;6.632;2023-05-20T07:38:46;3.63;;;2.63;;
39346;SDS011;26262;49.836;6.632;2023-05-20T07:41:11;3.65;;;2.38;;
39346;SDS011;26262;49.836;6.632;2023-05-20T07:43:37;4.43;;;2.45;;
39346;SDS011;26262;49.836;6.632;2023-05-20T07:46:03;4.25;;;2.60;;
39346;SDS011;26262;49.836;6.632;2023-05-20T07:48:28;3.35;;;2.45;;
39346;SDS011;26262;49.836;6.632;2023-05-20T07:50:54;3.95;;;2.53;;
39346;SDS011;26262;49.836;6.632;2023-05-20T07:53:23;3.40;;;2.30;;
39346;SDS011;26262;49.836;6.632;2023-05-20T07:55:49;4.85;;;2.60;;
39346;SDS011;26262;49.836;6.632;2023-05-20T07:58:14;5.10;;;2.58;;
39346;SDS011;26262;49.836;6.632;2023-05-20T08:00:40;4.15;;;2.90;;
39346;SDS011;26262;49.836;6.632;2023-05-20T08:03:05;5.25;;;2.50;;
39346;SDS011;26262;49.836;6.632;2023-05-20T08:05:31;3.70;;;2.67;;
39346;SDS011;26262;49.836;6.632;2023-05-20T08:07:57;6.68;;;2.88;;
39346;SDS011;26262;49.836;6.632;2023-05-20T08:10:23;4.00;;;2.28;;
39346;SDS011;26262;49.836;6.632;2023-05-20T08:12:48;5.15;;;2.85;;
39346;SDS011;26262;49.836;6.632;2023-05-20T08:15:14;5.22;;;3.08;;
39346;SDS011;26262;49.836;6.632;2023-05-20T08:17:40;4.00;;;2.30;;
39346;SDS011;26262;49.836;6.632;2023-05-20T08:20:05;3.70;;;2.75;;
39346;SDS011;26262;49.836;6.632;2023-05-20T08:22:34;4.78;;;2.92;;
39346;SDS011;26262;49.836;6.632;2023-05-20T08:25:01;7.47;;;2.95;;
39346;SDS011;26262;49.836;6.632;2023-05-20T08:27:27;8.23;;;3.10;;
39346;SDS011;26262;49.836;6.632;2023-05-20T08:29:52;5.82;;;2.92;;
39346;SDS011;26262;49.836;6.632;2023-05-20T08:32:18;4.03;;;3.00;;
39346;SDS011;26262;49.836;6.632;2023-05-20T08:34:43;8.45;;;3.45;;
39346;SDS011;26262;49.836;6.632;2023-05-20T08:37:09;3.92;;;2.85;;
39346;SDS011;26262;49.836;6.632;2023-05-20T08:39:34;3.65;;;2.65;;
39346;SDS011;26262;49.836;6.632;2023-05-20T08:42:00;5.20;;;2.90;;
39346;SDS011;26262;49.836;6.632;2023-05-20T08:44:27;4.85;;;2.90;;
39346;SDS011;26262;49.836;6.632;2023-05-20T08:46:53;5.53;;;3.22;;
39346;SDS011;26262;49.836;6.632;2023-05-20T08:49:20;4.75;;;3.10;;
39346;SDS011;26262;49.836;6.632;2023-05-20T08:51:46;4.85;;;2.72;;
39346;SDS011;26262;49.836;6.632;2023-05-20T08:54:13;5.22;;;2.90;;
39346;SDS011;26262;49.836;6.632;2023-05-20T08:59:07;3.97;;;2.95;;
39346;SDS011;26262;49.836;6.632;2023-05-20T09:01:34;4.78;;;3.17;;
39346;SDS011;26262;49.836;6.632;2023-05-20T09:04:05;4.15;;;3.25;;
39346;SDS011;26262;49.836;6.632;2023-05-20T09:06:40;3.87;;;2.77;;
39346;SDS011;26262;49.836;6.632;2023-05-20T09:09:08;6.30;;;3.05;;
39346;SDS011;26262;49.836;6.632;2023-05-20T09:11:35;4.18;;;2.58;;
39346;SDS011;26262;49.836;6.632;2023-05-20T09:14:01;4.38;;;2.85;;
39346;SDS011;26262;49.836;6.632;2023-05-20T09:16:27;5.57;;;3.28;;
39346;SDS011;26262;49.836;6.632;2023-05-20T09:18:55;4.75;;;2.70;;
39346;SDS011;26262;49.836;6.632;2023-05-20T09:21:27;6.03;;;4.18;;
39346;SDS011;26262;49.836;6.632;2023-05-20T09:23:53;5.13;;;2.90;;
39346;SDS011;26262;49.836;6.632;2023-05-20T09:28:47;11.63;;;3.90;;
39346;SDS011;26262;49.836;6.632;2023-05-20T09:31:13;4.13;;;3.03;;
39346;SDS011;26262;49.836;6.632;2023-05-20T09:33:39;8.35;;;3.13;;
39346;SDS011;26262;49.836;6.632;2023-05-20T09:36:07;6.25;;;2.80;;
39346;SDS011;26262;49.836;6.632;2023-05-20T09:38:36;4.35;;;3.42;;
39346;SDS011;26262;49.836;6.632;2023-05-20T09:41:10;3.58;;;3.00;;
39346;SDS011;26262;49.836;6.632;2023-05-20T09:43:39;5.40;;;3.10;;
39346;SDS011;26262;49.836;6.632;2023-05-20T09:46:06;3.97;;;2.78;;
39346;SDS011;26262;49.836;6.632;2023-05-20T09:48:34;3.67;;;2.80;;
39346;SDS011;26262;49.836;6.632;2023-05-20T09:51:01;4.50;;;2.45;;
39346;SDS011;26262;49.836;6.632;2023-05-20T09:53:28;6.28;;;2.88;;
39346;SDS011;26262;49.836;6.632;2023-05-20T09:55:54;4.47;;;2.92;;
39346;SDS011;26262;49.836;6.632;2023-05-20T09:58:20;4.13;;;3.22;;
39346;SDS011;26262;49.836;6.632;2023-05-20T10:00:47;6.32;;;3.15;;
39346;SDS011;26262;49.836;6.632;2023-05-20T10:03:12;3.30;;;2.50;;
39346;SDS011;26262;49.836;6.632;2023-05-20T10:05:49;6.78;;;3.00;;
39346;SDS011;26262;49.836;6.632;2023-05-20T10:11:15;6.88;;;3.22;;
39346;SDS011;26262;49.836;6.632;2023-05-20T10:17:01;6.57;;;3.22;;
39346;SDS011;26262;49.836;6.632;2023-05-20T10:19:34;5.32;;;2.83;;
39346;SDS011;26262;49.836;6.632;2023-05-20T10:22:00;4.65;;;3.40;;
39346;SDS011;26262;49.836;6.632;2023-05-20T10:24:30;5.70;;;3.20;;
39346;SDS011;26262;49.836;6.632;2023-05-20T10:27:07;5.82;;;2.97;;
39346;SDS011;26262;49.836;6.632;2023-05-20T10:29:59;3.47;;;2.75;;
39346;SDS011;26262;49.836;6.632;2023-05-20T10:32:31;6.47;;;3.25;;
39346;SDS011;26262;49.836;6.632;2023-05-20T10:34:59;6.50;;;3.13;;
39346;SDS011;26262;49.836;6.632;2023-05-20T10:37:28;5.85;;;3.28;;
39346;SDS011;26262;49.836;6.632;2023-05-20T10:40:09;9.02;;;3.97;;
39346;SDS011;26262;49.836;6.632;2023-05-20T10:42:39;5.20;;;3.17;;
39346;SDS011;26262;49.836;6.632;2023-05-20T10:45:06;11.63;;;4.43;;
39346;SDS011;26262;49.836;6.632;2023-05-20T10:47:33;20.17;;;7.83;;
39346;SDS011;26262;49.836;6.632;2023-05-20T10:49:59;15.05;;;6.78;;
39346;SDS011;26262;49.836;6.632;2023-05-20T10:52:33;6.55;;;3.28;;
39346;SDS011;26262;49.836;6.632;2023-05-20T10:55:00;5.65;;;3.70;;
39346;SDS011;26262;49.836;6.632;2023-05-20T10:57:28;7.22;;;3.67;;
39346;SDS011;26262;49.836;6.632;2023-05-20T10:59:54;5.53;;;3.33;;
39346;SDS011;26262;49.836;6.632;2023-05-20T11:02:20;8.85;;;3.20;;
39346;SDS011;26262;49.836;6.632;2023-05-20T11:04:52;5.43;;;3.45;;
39346;SDS011;26262;49.836;6.632;2023-05-20T11:07:25;7.43;;;4.63;;
39346;SDS011;26262;49.836;6.632;2023-05-20T11:09:55;6.90;;;2.90;;
39346;SDS011;26262;49.836;6.632;2023-05-20T11:12:22;3.67;;;2.85;;
39346;SDS011;26262;49.836;6.632;2023-05-20T11:14:48;4.32;;;2.33;;
39346;SDS011;26262;49.836;6.632;2023-05-20T11:17:14;5.03;;;2.97;;
39346;SDS011;26262;49.836;6.632;2023-05-20T11:19:41;4.65;;;2.63;;
39346;SDS011;26262;49.836;6.632;2023-05-20T11:22:06;3.58;;;2.53;;
39346;SDS011;26262;49.836;6.632;2023-05-20T11:24:32;3.40;;;2.22;;
39346;SDS011;26262;49.836;6.632;2023-05-20T11:26:58;4.63;;;2.30;;
39346;SDS011;26262;49.836;6.632;2023-05-20T11:29:25;3.00;;;2.40;;
39346;SDS011;26262;49.836;6.632;2023-05-20T11:31:52;4.38;;;2.53;;
39346;SDS011;26262;49.836;6.632;2023-05-20T11:34:19;4.03;;;2.67;;
39346;SDS011;26262;49.836;6.632;2023-05-20T11:36:48;4.72;;;2.35;;
39346;SDS011;26262;49.836;6.632;2023-05-20T11:39:20;4.50;;;2.70;;
39346;SDS011;26262;49.836;6.632;2023-05-20T11:41:46;5.97;;;3.90;;
39346;SDS011;26262;49.836;6.632;2023-05-20T11:44:12;4.00;;;2.63;;
39346;SDS011;26262;49.836;6.632;2023-05-20T11:46:41;3.13;;;2.25;;
39346;SDS011;26262;49.836;6.632;2023-05-20T11:49:12;3.75;;;2.30;;
39346;SDS011;26262;49.836;6.632;2023-05-20T11:51:39;4.10;;;2.73;;
39346;SDS011;26262;49.836;6.632;2023-05-20T11:54:05;4.40;;;2.70;;
39346;SDS011;26262;49.836;6.632;2023-05-20T11:56:32;3.92;;;2.70;;
39346;SDS011;26262;49.836;6.632;2023-05-20T11:59:00;5.85;;;2.72;;
39346;SDS011;26262;49.836;6.632;2023-05-20T12:01:28;6.22;;;2.50;;
39346;SDS011;26262;49.836;6.632;2023-05-20T12:03:54;3.90;;;2.92;;
39346;SDS011;26262;49.836;6.632;2023-05-20T12:06:20;3.20;;;2.53;;
39346;SDS011;26262;49.836;6.632;2023-05-20T12:08:46;3.83;;;2.70;;
39346;SDS011;26262;49.836;6.632;2023-05-20T12:11:12;3.90;;;2.65;;
39346;SDS011;26262;49.836;6.632;2023-05-20T12:13:38;4.90;;;2.58;;
39346;SDS011;26262;49.836;6.632;2023-05-20T12:16:04;3.67;;;2.65;;
39346;SDS011;26262;49.836;6.632;2023-05-20T12:18:30;3.95;;;2.47;;
39346;SDS011;26262;49.836;6.632;2023-05-20T12:20:56;5.07;;;2.60;;
39346;SDS011;26262;49.836;6.632;2023-05-20T12:23:25;7.47;;;3.28;;
39346;SDS011;26262;49.836;6.632;2023-05-20T12:25:50;5.82;;;3.08;;
39346;SDS011;26262;49.836;6.632;2023-05-20T12:28:16;4.15;;;3.17;;
39346;SDS011;26262;49.836;6.632;2023-05-20T12:30:42;4.70;;;3.25;;
39346;SDS011;26262;49.836;6.632;2023-05-20T12:33:07;4.82;;;2.97;;
39346;SDS011;26262;49.836;6.632;2023-05-20T12:35:37;5.10;;;2.90;;
39346;SDS011;26262;49.836;6.632;2023-05-20T12:38:04;4.38;;;3.00;;
39346;SDS011;26262;49.836;6.632;2023-05-20T12:40:30;3.70;;;2.72;;
39346;SDS011;26262;49.836;6.632;2023-05-20T12:42:55;5.40;;;3.00;;
39346;SDS011;26262;49.836;6.632;2023-05-20T12:45:21;5.75;;;3.17;;
39346;SDS011;26262;49.836;6.632;2023-05-20T12:47:46;6.28;;;2.40;;
39346;SDS011;26262;49.836;6.632;2023-05-20T12:50:12;4.15;;;2.80;;
39346;SDS011;26262;49.836;6.632;2023-05-20T12:52:38;5.70;;;3.60;;
39346;SDS011;26262;49.836;6.632;2023-05-20T12:55:03;3.55;;;2.72;;
39346;SDS011;26262;49.836;6.632;2023-05-20T12:57:37;2.88;;;2.58;;
39346;SDS011;26262;49.836;6.632;2023-05-20T13:00:03;5.97;;;2.88;;
39346;SDS011;26262;49.836;6.632;2023-05-20T13:02:30;10.63;;;3.20;;
39346;SDS011;26262;49.836;6.632;2023-05-20T13:04:55;7.65;;;2.88;;
39346;SDS011;26262;49.836;6.632;2023-05-20T13:07:21;4.88;;;3.30;;
39346;SDS011;26262;49.836;6.632;2023-05-20T13:09:46;7.43;;;3.50;;
39346;SDS011;26262;49.836;6.632;2023-05-20T13:12:12;4.03;;;3.03;;
39346;SDS011;26262;49.836;6.632;2023-05-20T13:14:38;3.20;;;2.88;;
39346;SDS011;26262;49.836;6.632;2023-05-20T13:17:03;3.63;;;2.80;;
39346;SDS011;26262;49.836;6.632;2023-05-20T13:19:29;4.22;;;2.92;;
39346;SDS011;26262;49.836;6.632;2023-05-20T13:21:54;3.30;;;2.75;;
39346;SDS011;26262;49.836;6.632;2023-05-20T13:24:20;3.38;;;2.70;;
39346;SDS011;26262;49.836;6.632;2023-05-20T13:26:45;3.50;;;2.88;;
39346;SDS011;26262;49.836;6.632;2023-05-20T13:29:11;4.32;;;2.75;;
39346;SDS011;26262;49.836;6.632;2023-05-20T13:31:37;4.35;;;2.92;;
39346;SDS011;26262;49.836;6.632;2023-05-20T13:34:03;3.78;;;2.78;;
39346;SDS011;26262;49.836;6.632;2023-05-20T13:36:29;4.85;;;2.90;;
39346;SDS011;26262;49.836;6.632;2023-05-20T13:38:55;3.80;;;2.80;;
39346;SDS011;26262;49.836;6.632;2023-05-20T13:41:21;3.45;;;2.60;;
39346;SDS011;26262;49.836;6.632;2023-05-20T13:43:48;5.22;;;2.67;;
39346;SDS011;26262;49.836;6.632;2023-05-20T13:46:14;4.90;;;3.00;;
39346;SDS011;26262;49.836;6.632;2023-05-20T13:48:40;3.95;;;3.15;;
39346;SDS011;26262;49.836;6.632;2023-05-20T13:51:06;5.63;;;3.10;;
39346;SDS011;26262;49.836;6.632;2023-05-20T13:53:32;4.25;;;3.22;;
39346;SDS011;26262;49.836;6.632;2023-05-20T13:55:57;3.42;;;2.95;;
39346;SDS011;26262;49.836;6.632;2023-05-20T13:58:23;6.53;;;3.20;;
39346;SDS011;26262;49.836;6.632;2023-05-20T14:00:48;3.95;;;3.15;;
39346;SDS011;26262;49.836;6.632;2023-05-20T14:03:14;4.60;;;3.28;;
39346;SDS011;26262;49.836;6.632;2023-05-20T14:05:40;6.00;;;3.63;;
39346;SDS011;26262;49.836;6.632;2023-05-20T14:08:06;7.05;;;3.03;;
39346;SDS011;26262;49.836;6.632;2023-05-20T14:10:31;5.90;;;3.30;;
39346;SDS011;26262;49.836;6.632;2023-05-20T14:12:57;3.90;;;3.28;;
39346;SDS011;26262;49.836;6.632;2023-05-20T14:15:24;4.95;;;3.00;;
39346;SDS011;26262;49.836;6.632;2023-05-20T14:17:50;4.38;;;3.22;;
39346;SDS011;26262;49.836;6.632;2023-05-20T14:20:15;3.67;;;3.22;;
39346;SDS011;26262;49.836;6.632;2023-05-20T14:22:41;5.15;;;3.55;;
39346;SDS011;26262;49.836;6.632;2023-05-20T14:25:07;4.40;;;3.10;;
39346;SDS011;26262;49.836;6.632;2023-05-20T14:27:32;4.15;;;3.15;;
39346;SDS011;26262;49.836;6.632;2023-05-20T14:29:58;5.63;;;3.22;;
39346;SDS011;26262;49.836;6.632;2023-05-20T14:32:24;5.70;;;3.80;;
39346;SDS011;26262;49.836;6.632;2023-05-20T14:34:50;4.32;;;3.40;;
39346;SDS011;26262;49.836;6.632;2023-05-20T14:37:16;5.30;;;3.22;;
39346;SDS011;26262;49.836;6.632;2023-05-20T14:39:41;3.42;;;3.13;;
39346;SDS011;26262;49.836;6.632;2023-05-20T14:42:07;3.88;;;3.40;;
39346;SDS011;26262;49.836;6.632;2023-05-20T14:44:32;4.13;;;2.88;;
39346;SDS011;26262;49.836;6.632;2023-05-20T14:46:58;5.72;;;3.40;;
39346;SDS011;26262;49.836;6.632;2023-05-20T14:49:23;4.53;;;4.05;;
39346;SDS011;26262;49.836;6.632;2023-05-20T14:51:49;6.97;;;3.50;;
39346;SDS011;26262;49.836;6.632;2023-05-20T14:54:14;3.20;;;2.90;;
39346;SDS011;26262;49.836;6.632;2023-05-20T14:56:43;4.45;;;3.60;;
39346;SDS011;26262;49.836;6.632;2023-05-20T14:59:09;4.57;;;3.50;;